createdAt,value
2016-12-18T00:00:05.026Z,1037.63
2016-12-18T00:05:05.018Z,1037.65
2016-12-18T00:10:05.227Z,1037.54
2016-12-18T00:15:05.221Z,1037.4
2016-12-18T00:20:04.697Z,1037.39
2016-12-18T00:25:04.964Z,1037.32
2016-12-18T00:30:04.464Z,1037.24
2016-12-18T00:35:04.903Z,1037.27
2016-12-18T00:40:04.268Z,1037.34
2016-12-18T00:45:04.546Z,1037.25
2016-12-18T00:50:05.316Z,1037.22
2016-12-18T00:55:04.803Z,1037.12
2016-12-18T01:00:04.323Z,1037.1
2016-12-18T01:05:04.649Z,1037.17
2016-12-18T01:10:04.319Z,1037.14
2016-12-18T01:15:04.919Z,1037.17
2016-12-18T01:20:04.788Z,1037.31
2016-12-18T01:25:05.300Z,1037.27
2016-12-18T01:30:04.832Z,1037.23
2016-12-18T01:35:04.236Z,1037.21
2016-12-18T01:40:04.647Z,1037.21
2016-12-18T01:45:05.098Z,1037.09
2016-12-18T01:50:04.552Z,1037.19
2016-12-18T01:55:05.064Z,1037.15
2016-12-18T02:00:04.738Z,1037.08
2016-12-18T02:05:04.503Z,1037.18
2016-12-18T02:10:05.212Z,1037.09
2016-12-18T02:15:04.826Z,1037.16
2016-12-18T02:20:04.475Z,1037.08
2016-12-18T02:25:04.476Z,1037.18
2016-12-18T02:30:04.412Z,1037.19
2016-12-18T02:35:04.863Z,1037.12
2016-12-18T02:40:05.216Z,1037.06
2016-12-18T02:45:04.279Z,1037
2016-12-18T02:50:04.406Z,1036.95
2016-12-18T02:55:04.468Z,1036.93
2016-12-18T03:00:05.313Z,1036.81
2016-12-18T03:05:06.538Z,1036.83
2016-12-18T03:10:04.249Z,1036.9
2016-12-18T03:15:04.475Z,1036.83
2016-12-18T03:20:04.585Z,1036.92
2016-12-18T03:25:04.959Z,1036.89
2016-12-18T03:30:04.932Z,1036.81
2016-12-18T03:35:04.466Z,1036.9
2016-12-18T03:40:04.887Z,1036.84
2016-12-18T03:45:04.671Z,1036.75
2016-12-18T03:50:04.787Z,1036.83
2016-12-18T03:55:04.430Z,1036.75
2016-12-18T04:00:04.538Z,1036.78
2016-12-18T04:05:06.512Z,1036.76
2016-12-18T04:10:04.779Z,1036.84
2016-12-18T04:15:04.448Z,1036.55
2016-12-18T04:20:04.812Z,1036.55
2016-12-18T04:25:04.822Z,1036.44
2016-12-18T04:30:05.151Z,1036.4
2016-12-18T04:35:04.787Z,1036.25
2016-12-18T04:40:04.883Z,1036.34
2016-12-18T04:45:04.638Z,1036.41
2016-12-18T04:50:04.185Z,1036.39
2016-12-18T04:55:04.499Z,1036.23
2016-12-18T05:00:04.787Z,1036.14
2016-12-18T05:05:05.185Z,1036.3
2016-12-18T05:10:04.771Z,1036.41
2016-12-18T05:15:04.964Z,1036.36
2016-12-18T05:20:04.953Z,1036.36
2016-12-18T05:25:04.500Z,1036.33
2016-12-18T05:30:04.547Z,1036.25
2016-12-18T05:35:05.098Z,1036.3
2016-12-18T05:40:04.852Z,1036.29
2016-12-18T05:45:05.274Z,1036.23
2016-12-18T05:50:04.595Z,1036.3
2016-12-18T05:55:05.069Z,1036.24
2016-12-18T06:00:04.669Z,1036.18
2016-12-18T06:05:04.967Z,1036.08
2016-12-18T06:10:04.405Z,1036.05
2016-12-18T06:15:04.594Z,1036.13
2016-12-18T06:20:05.145Z,1036.11
2016-12-18T06:25:04.574Z,1036.17
2016-12-18T06:30:04.767Z,1036.17
2016-12-18T06:35:05.428Z,1036.3
2016-12-18T06:40:05.068Z,1036.31
2016-12-18T06:45:04.884Z,1036.2
2016-12-18T06:50:04.763Z,1036.24
2016-12-18T06:55:05.255Z,1036.2
2016-12-18T07:00:04.429Z,1036.29
2016-12-18T07:05:04.873Z,1036.26
2016-12-18T07:10:04.591Z,1036.26
2016-12-18T07:15:04.356Z,1036.22
2016-12-18T07:20:04.868Z,1036.05
2016-12-18T07:25:05.235Z,1036.08
2016-12-18T07:30:05.195Z,1036.04
2016-12-18T07:35:05.156Z,1036.01
2016-12-18T07:40:04.860Z,1035.98
2016-12-18T07:45:04.490Z,1035.97
2016-12-18T07:50:05.243Z,1035.93
2016-12-18T07:55:04.845Z,1035.8
2016-12-18T08:00:04.957Z,1035.85
2016-12-18T08:05:04.734Z,1035.77
2016-12-18T08:10:04.382Z,1035.7
2016-12-18T08:15:05.025Z,1035.77
2016-12-18T08:20:04.694Z,1035.77
2016-12-18T08:25:04.894Z,1035.8
2016-12-18T08:30:04.898Z,1035.83
2016-12-18T08:35:05.239Z,1035.84
2016-12-18T08:40:04.347Z,1035.82
2016-12-18T08:45:04.488Z,1035.87
2016-12-18T08:50:04.432Z,1035.92
2016-12-18T08:55:05.050Z,1035.85
2016-12-18T09:00:05.048Z,1035.76
2016-12-18T09:05:04.271Z,1035.72
2016-12-18T09:10:05.079Z,1035.59
2016-12-18T09:15:04.495Z,1035.69
2016-12-18T09:20:05.266Z,1035.74
2016-12-18T09:25:04.824Z,1035.67
2016-12-18T09:30:04.447Z,1035.63
2016-12-18T09:35:05.268Z,1035.6
2016-12-18T09:40:04.812Z,1035.66
2016-12-18T09:45:04.344Z,1035.61
2016-12-18T09:50:05.238Z,1035.58
2016-12-18T09:55:04.443Z,1035.63
2016-12-18T10:00:04.862Z,1035.56
2016-12-18T10:05:04.979Z,1035.65
2016-12-18T10:10:04.244Z,1035.46
2016-12-18T10:15:05.326Z,1035.42
2016-12-18T10:20:04.512Z,1035.48
2016-12-18T10:25:04.854Z,1035.44
2016-12-18T10:30:04.720Z,1035.47
2016-12-18T10:35:04.295Z,1035.51
2016-12-18T10:40:04.557Z,1035.42
2016-12-18T10:45:04.644Z,1035.28
2016-12-18T10:50:04.589Z,1035.26
2016-12-18T10:55:04.479Z,1035.21
2016-12-18T11:00:04.594Z,1035.17
2016-12-18T11:05:04.492Z,1035.09
2016-12-18T11:10:04.650Z,1034.98
2016-12-18T11:15:05.353Z,1034.93
2016-12-18T11:20:05.234Z,1034.9
2016-12-18T11:25:04.749Z,1034.89
2016-12-18T11:30:04.835Z,1034.81
2016-12-18T11:35:04.777Z,1034.88
2016-12-18T11:40:05.028Z,1034.92
2016-12-18T11:45:05.324Z,1034.84
2016-12-18T11:50:04.790Z,1034.76
2016-12-18T11:55:04.652Z,1034.73
2016-12-18T12:00:05.195Z,1034.74
2016-12-18T12:05:04.357Z,1034.74
2016-12-18T12:10:04.500Z,1034.68
2016-12-18T12:15:05.182Z,1034.69
2016-12-18T12:20:04.470Z,1034.71
2016-12-18T12:25:04.489Z,1034.57
2016-12-18T12:30:04.423Z,1034.56
2016-12-18T12:35:05.069Z,1034.43
2016-12-18T12:40:04.780Z,1034.46
2016-12-18T12:45:04.373Z,1034.4
2016-12-18T12:50:05.050Z,1034.29
2016-12-18T12:55:04.775Z,1034.23
2016-12-18T13:00:04.585Z,1034.15
2016-12-18T13:05:04.506Z,1034.16
2016-12-18T13:10:04.579Z,1034.18
2016-12-18T13:15:04.987Z,1034.27
2016-12-18T13:20:05.036Z,1034.18
2016-12-18T13:25:04.541Z,1034.12
2016-12-18T13:30:04.151Z,1034.17
2016-12-18T13:35:04.239Z,1034.16
2016-12-18T13:40:05.031Z,1034.09
2016-12-18T13:45:04.299Z,1034.14
2016-12-18T13:50:04.247Z,1034.13
2016-12-18T13:55:04.405Z,1034.16
2016-12-18T14:00:04.249Z,1034.12
2016-12-18T14:05:04.852Z,1034.1
2016-12-18T14:10:05.179Z,1034.16
2016-12-18T14:15:05.133Z,1034.14
2016-12-18T14:20:04.459Z,1034.02
2016-12-18T14:25:04.843Z,1033.97
2016-12-18T14:30:04.947Z,1034
2016-12-18T14:35:05.011Z,1033.85
2016-12-18T14:40:04.893Z,1033.83
2016-12-18T14:45:04.401Z,1033.74
2016-12-18T14:50:04.791Z,1033.58
2016-12-18T14:55:04.791Z,1033.53
2016-12-18T15:00:05.130Z,1033.47
2016-12-18T15:05:04.479Z,1033.38
2016-12-18T15:10:05.209Z,1033.46
2016-12-18T15:15:04.353Z,1033.42
2016-12-18T15:20:04.354Z,1033.32
2016-12-18T15:25:04.666Z,1033.32
2016-12-18T15:30:05.256Z,1033.37
2016-12-18T15:35:05.179Z,1033.32
2016-12-18T15:40:04.261Z,1033.35
2016-12-18T15:45:04.780Z,1033.37
2016-12-18T15:50:04.654Z,1033.34
2016-12-18T15:55:04.612Z,1033.37
2016-12-18T16:00:04.655Z,1033.28
2016-12-18T16:05:04.798Z,1033.19
2016-12-18T16:10:05.037Z,1033.21
2016-12-18T16:15:04.570Z,1033.1
2016-12-18T16:20:05.220Z,1032.96
2016-12-18T16:25:04.304Z,1032.94
2016-12-18T16:30:04.765Z,1032.95
2016-12-18T16:35:05.050Z,1033.04
2016-12-18T16:40:05.023Z,1032.97
2016-12-18T16:45:04.593Z,1032.93
2016-12-18T16:50:04.695Z,1032.95
2016-12-18T16:55:04.572Z,1032.88
2016-12-18T17:00:05.413Z,1032.97
2016-12-18T17:05:04.860Z,1032.94
2016-12-18T17:10:04.970Z,1032.89
2016-12-18T17:15:04.873Z,1032.89
2016-12-18T17:20:05.252Z,1032.94
2016-12-18T17:25:05.135Z,1032.87
2016-12-18T17:30:04.462Z,1032.76
2016-12-18T17:35:04.754Z,1032.71
2016-12-18T17:40:05.155Z,1032.63
2016-12-18T17:45:05.133Z,1032.64
2016-12-18T17:50:04.623Z,1032.65
2016-12-18T17:55:04.519Z,1032.63
2016-12-18T18:00:04.855Z,1032.67
2016-12-18T18:05:04.576Z,1032.68
2016-12-18T18:10:04.952Z,1032.63
2016-12-18T18:15:04.490Z,1032.65
2016-12-18T18:20:04.230Z,1032.69
2016-12-18T18:25:04.533Z,1032.71
2016-12-18T18:30:05.068Z,1032.72
2016-12-18T18:35:04.405Z,1032.68
2016-12-18T18:40:04.549Z,1032.68
2016-12-18T18:45:04.471Z,1032.63
2016-12-18T18:50:05.009Z,1032.59
2016-12-18T18:55:04.482Z,1032.65
2016-12-18T19:00:04.679Z,1032.57
2016-12-18T19:05:04.753Z,1032.6
2016-12-18T19:10:04.869Z,1032.69
2016-12-18T19:15:04.392Z,1032.71
2016-12-18T19:20:04.476Z,1032.75
2016-12-18T19:25:04.826Z,1032.82
2016-12-18T19:30:04.659Z,1032.82
2016-12-18T19:35:04.657Z,1032.78
2016-12-18T19:40:05.052Z,1032.72
2016-12-18T19:45:04.910Z,1032.72
2016-12-18T19:50:05.217Z,1032.69
2016-12-18T19:55:05.031Z,1032.7
2016-12-18T20:00:05.137Z,1032.73
2016-12-18T20:05:04.470Z,1032.73
2016-12-18T20:10:04.939Z,1032.66
2016-12-18T20:15:04.806Z,1032.58
2016-12-18T20:20:05.074Z,1032.58
2016-12-18T20:25:05.165Z,1032.48
2016-12-18T20:30:05.167Z,1032.54
2016-12-18T20:35:04.559Z,1032.59
2016-12-18T20:40:04.568Z,1032.52
2016-12-18T20:45:04.892Z,1032.51
2016-12-18T20:50:04.778Z,1032.54
2016-12-18T20:55:04.501Z,1032.53
2016-12-18T21:00:04.667Z,1032.54
2016-12-18T21:05:04.800Z,1032.4
2016-12-18T21:10:05.322Z,1032.41
2016-12-18T21:15:04.546Z,1032.4
2016-12-18T21:20:04.764Z,1032.22
2016-12-18T21:25:05.109Z,1032.4
2016-12-18T21:30:04.535Z,1032.27
2016-12-18T21:35:04.712Z,1032.17
2016-12-18T21:40:04.956Z,1032.15
2016-12-18T21:45:05.061Z,1032.05
2016-12-18T21:50:04.743Z,1031.98
2016-12-18T21:55:04.891Z,1032
2016-12-18T22:00:04.684Z,1031.98
2016-12-18T22:05:04.605Z,1031.94
2016-12-18T22:10:04.882Z,1031.8
2016-12-18T22:15:05.056Z,1031.85
2016-12-18T22:20:04.827Z,1031.78
2016-12-18T22:25:05.001Z,1031.75
2016-12-18T22:30:05.261Z,1031.74
2016-12-18T22:35:04.538Z,1031.78
2016-12-18T22:40:04.587Z,1031.76
2016-12-18T22:45:04.727Z,1031.76
2016-12-18T22:50:04.803Z,1031.77
2016-12-18T22:55:04.978Z,1031.68
2016-12-18T23:00:04.622Z,1031.74
2016-12-18T23:05:04.556Z,1031.71
2016-12-18T23:10:05.042Z,1031.66
2016-12-18T23:15:04.610Z,1031.62
2016-12-18T23:20:04.780Z,1031.68
2016-12-18T23:25:04.802Z,1031.63
2016-12-18T23:30:04.791Z,1031.61
2016-12-18T23:35:04.946Z,1031.6
2016-12-18T23:40:04.501Z,1031.69
2016-12-18T23:45:04.670Z,1031.6
2016-12-18T23:50:04.870Z,1031.59
2016-12-18T23:55:04.871Z,1031.55
